createdAt,value
2018-11-23T00:02:22.259Z,21.77
2018-11-23T00:04:49.991Z,23.13
2018-11-23T00:07:17.734Z,18.37
2018-11-23T00:09:45.511Z,20.30
2018-11-23T00:12:13.233Z,22.63
2018-11-23T00:14:40.931Z,24.73
2018-11-23T00:17:08.642Z,24.57
2018-11-23T00:19:36.424Z,25.17
2018-11-23T00:22:04.320Z,22.13
2018-11-23T00:24:32.066Z,22.77
2018-11-23T00:27:00.058Z,20.83
2018-11-23T00:29:27.802Z,20.90
2018-11-23T00:31:55.528Z,19.37
2018-11-23T00:34:23.276Z,18.93
2018-11-23T00:36:51.399Z,19.30
2018-11-23T00:39:19.165Z,20.23
2018-11-23T00:41:46.918Z,20.47
2018-11-23T00:44:14.651Z,21.30
2018-11-23T00:46:42.391Z,22.30
2018-11-23T00:49:10.112Z,21.20
2018-11-23T00:51:37.904Z,19.67
2018-11-23T00:54:05.667Z,19.40
2018-11-23T00:56:33.403Z,20.80
2018-11-23T00:59:01.158Z,20.23
2018-11-23T01:01:33.400Z,22.70
2018-11-23T01:04:01.113Z,20.07
2018-11-23T01:06:28.847Z,22.97
2018-11-23T01:08:56.599Z,20.30
2018-11-23T01:11:24.311Z,20.73
2018-11-23T01:13:52.036Z,21.57
2018-11-23T01:16:19.766Z,24.17
2018-11-23T01:18:47.484Z,22.80
2018-11-23T01:21:15.219Z,20.87
2018-11-23T01:23:42.956Z,21.53
2018-11-23T01:26:10.799Z,19.47
2018-11-23T01:28:38.531Z,18.60
2018-11-23T01:31:06.282Z,23.40
2018-11-23T01:33:34.007Z,22.73
2018-11-23T01:36:01.814Z,24.33
2018-11-23T01:38:29.548Z,22.70
2018-11-23T01:40:57.291Z,23.03
2018-11-23T01:43:25.023Z,23.50
2018-11-23T01:45:52.744Z,27.27
2018-11-23T01:48:20.492Z,25.23
2018-11-23T01:50:48.230Z,24.77
2018-11-23T01:53:15.955Z,25.10
2018-11-23T01:55:43.663Z,25.80
2018-11-23T01:58:11.391Z,28.07
2018-11-23T02:00:39.127Z,29.20
2018-11-23T02:03:06.865Z,27.63
2018-11-23T02:05:34.577Z,29.47
2018-11-23T02:08:02.291Z,28.33
2018-11-23T02:10:30.318Z,31.60
2018-11-23T02:12:58.052Z,32.83
2018-11-23T02:15:25.814Z,28.10
2018-11-23T02:17:53.545Z,29.60
2018-11-23T02:20:21.960Z,27.00
2018-11-23T02:22:49.699Z,29.53
2018-11-23T02:25:17.431Z,28.60
2018-11-23T02:27:45.231Z,29.00
2018-11-23T02:30:15.965Z,30.50
2018-11-23T02:32:44.072Z,31.80
2018-11-23T02:35:12.312Z,30.87
2018-11-23T02:37:40.734Z,31.87
2018-11-23T02:40:09.604Z,35.90
2018-11-23T02:42:37.572Z,32.33
2018-11-23T02:45:07.392Z,29.07
2018-11-23T02:47:35.138Z,31.33
2018-11-23T02:50:02.873Z,31.53
2018-11-23T02:52:30.611Z,30.93
2018-11-23T02:54:58.320Z,27.27
2018-11-23T02:57:26.044Z,29.17
2018-11-23T02:59:53.835Z,30.70
2018-11-23T03:02:21.563Z,26.33
2018-11-23T03:04:49.336Z,30.33
2018-11-23T03:07:17.080Z,26.93
2018-11-23T03:09:44.815Z,29.27
2018-11-23T03:12:12.557Z,28.67
2018-11-23T03:14:40.293Z,33.03
2018-11-23T03:17:07.999Z,30.73
2018-11-23T03:19:35.747Z,31.07
2018-11-23T03:22:03.626Z,29.83
2018-11-23T03:24:31.359Z,31.10
2018-11-23T03:26:59.092Z,32.33
2018-11-23T03:29:26.845Z,34.33
2018-11-23T03:31:54.568Z,30.83
2018-11-23T03:34:22.287Z,30.40
2018-11-23T03:36:50.009Z,33.97
2018-11-23T03:39:17.736Z,31.07
2018-11-23T03:41:45.512Z,33.20
2018-11-23T03:44:13.229Z,29.60
2018-11-23T03:46:40.964Z,28.57
2018-11-23T03:49:08.704Z,28.63
2018-11-23T03:51:36.431Z,27.17
2018-11-23T03:54:04.250Z,28.30
2018-11-23T03:56:32.007Z,31.27
2018-11-23T03:58:59.747Z,29.57
2018-11-23T04:01:27.481Z,27.13
2018-11-23T04:03:55.215Z,27.97
2018-11-23T04:06:22.959Z,30.60
2018-11-23T04:08:51.212Z,35.33
2018-11-23T04:11:18.967Z,35.17
2018-11-23T04:13:46.680Z,32.33
2018-11-23T04:16:14.433Z,26.90
2018-11-23T04:18:42.160Z,25.60
2018-11-23T04:21:09.896Z,18.43
2018-11-23T04:23:37.628Z,24.83
2018-11-23T04:26:05.374Z,22.20
2018-11-23T04:28:33.131Z,19.00
2018-11-23T04:31:00.860Z,25.93
2018-11-23T04:33:28.584Z,20.77
2018-11-23T04:35:56.811Z,24.20
2018-11-23T04:38:24.543Z,23.30
2018-11-23T04:40:52.284Z,21.07
2018-11-23T04:43:20.079Z,22.07
2018-11-23T04:45:47.787Z,25.87
2018-11-23T04:48:15.491Z,22.50
2018-11-23T04:50:43.223Z,19.70
2018-11-23T04:53:10.967Z,22.20
2018-11-23T04:55:38.709Z,20.93
2018-11-23T04:58:06.461Z,20.90
2018-11-23T05:00:34.207Z,20.90
2018-11-23T05:03:01.927Z,18.33
2018-11-23T05:05:29.651Z,19.53
2018-11-23T05:07:57.383Z,20.20
2018-11-23T05:10:25.159Z,19.47
2018-11-23T05:12:52.901Z,21.13
2018-11-23T05:15:20.656Z,18.27
2018-11-23T05:17:48.441Z,21.00
2018-11-23T05:20:16.575Z,19.50
2018-11-23T05:22:44.664Z,21.10
2018-11-23T05:25:13.843Z,24.00
2018-11-23T05:27:41.674Z,25.77
2018-11-23T05:30:12.295Z,23.87
2018-11-23T05:32:40.156Z,21.43
2018-11-23T05:35:08.719Z,27.23
2018-11-23T05:37:36.551Z,25.63
2018-11-23T05:40:06.019Z,22.67
2018-11-23T05:42:33.737Z,22.67
2018-11-23T05:45:01.507Z,22.60
2018-11-23T05:47:29.305Z,25.47
2018-11-23T05:49:57.027Z,21.97
2018-11-23T05:52:24.763Z,20.13
2018-11-23T05:54:52.484Z,21.47
2018-11-23T05:57:20.241Z,19.37
2018-11-23T05:59:48.011Z,18.63
2018-11-23T06:02:15.731Z,20.70
2018-11-23T06:04:43.484Z,20.00
2018-11-23T06:07:11.237Z,21.13
2018-11-23T06:09:38.999Z,22.47
2018-11-23T06:12:06.767Z,23.93
2018-11-23T06:14:34.491Z,21.83
2018-11-23T06:17:02.295Z,21.30
2018-11-23T06:19:30.051Z,20.70
2018-11-23T06:21:57.780Z,26.10
2018-11-23T06:24:31.952Z,24.83
2018-11-23T06:26:53.350Z,27.53
2018-11-23T06:29:21.103Z,30.33
2018-11-23T06:31:49.129Z,28.10
2018-11-23T06:34:16.904Z,27.63
2018-11-23T06:36:44.636Z,27.37
2018-11-23T06:39:12.375Z,25.63
2018-11-23T06:41:40.111Z,28.77
2018-11-23T06:44:08.084Z,32.10
2018-11-23T06:46:35.851Z,29.63
2018-11-23T06:49:03.646Z,26.17
2018-11-23T06:51:31.408Z,29.03
2018-11-23T06:53:59.144Z,25.43
2018-11-23T06:56:26.927Z,23.73
2018-11-23T06:58:54.652Z,25.57
2018-11-23T07:01:22.391Z,22.40
2018-11-23T07:03:50.345Z,28.23
2018-11-23T07:06:18.139Z,28.60
2018-11-23T07:08:52.207Z,26.10
2018-11-23T07:11:13.672Z,28.03
2018-11-23T07:13:41.491Z,25.20
2018-11-23T07:16:09.274Z,30.50
2018-11-23T07:18:37.007Z,29.07
2018-11-23T07:21:05.148Z,29.57
2018-11-23T07:23:32.862Z,26.10
2018-11-23T07:26:00.598Z,25.57
2018-11-23T07:28:28.337Z,23.83
2018-11-23T07:31:02.100Z,26.90
2018-11-23T07:33:23.940Z,26.13
2018-11-23T07:35:51.739Z,34.13
2018-11-23T07:38:19.463Z,22.43
2018-11-23T07:40:58.267Z,30.27
2018-11-23T07:43:26.017Z,34.90
2018-11-23T07:45:53.847Z,32.20
2018-11-23T07:48:21.626Z,29.40
2018-11-23T07:50:49.352Z,25.30
2018-11-23T07:53:17.109Z,25.90
2018-11-23T07:55:44.935Z,22.43
2018-11-23T07:58:12.659Z,22.13
2018-11-23T08:00:40.443Z,21.43
2018-11-23T08:03:08.238Z,25.70
2018-11-23T08:05:35.976Z,25.20
2018-11-23T08:08:03.881Z,23.60
2018-11-23T08:10:30.981Z,21.13
2018-11-23T08:12:58.731Z,23.57
2018-11-23T08:15:27.414Z,24.80
2018-11-23T08:17:55.190Z,21.43
2018-11-23T08:20:23.852Z,19.13
2018-11-23T08:22:51.681Z,29.10
2018-11-23T08:25:20.520Z,25.80
2018-11-23T08:27:49.229Z,24.07
2018-11-23T08:30:20.438Z,21.80
2018-11-23T08:32:48.207Z,18.47
2018-11-23T08:35:16.505Z,18.87
2018-11-23T08:37:44.562Z,23.03
2018-11-23T08:40:15.017Z,17.63
2018-11-23T08:42:43.311Z,18.77
2018-11-23T08:45:13.630Z,21.67
2018-11-23T08:47:41.451Z,16.37
2018-11-23T08:50:11.826Z,18.03
2018-11-23T08:52:39.563Z,19.10
2018-11-23T08:55:08.126Z,18.27
2018-11-23T08:57:35.881Z,20.47
2018-11-23T09:00:05.844Z,19.80
2018-11-23T09:02:33.590Z,17.43
2018-11-23T09:05:01.342Z,16.23
2018-11-23T09:07:29.101Z,15.60
2018-11-23T09:09:56.842Z,18.60
2018-11-23T09:12:24.569Z,16.53
2018-11-23T09:14:52.392Z,13.53
2018-11-23T09:17:20.171Z,15.00
2018-11-23T09:19:47.958Z,17.60
2018-11-23T09:22:15.712Z,23.77
2018-11-23T09:24:43.499Z,23.40
2018-11-23T09:27:11.222Z,16.63
2018-11-23T09:29:38.972Z,17.47
2018-11-23T09:32:06.743Z,16.80
2018-11-23T09:34:34.483Z,15.03
2018-11-23T09:37:02.267Z,18.77
2018-11-23T09:39:30.049Z,17.23
2018-11-23T09:41:57.820Z,15.17
2018-11-23T09:44:25.627Z,13.27
2018-11-23T09:46:53.339Z,14.83
2018-11-23T09:49:21.160Z,18.97
2018-11-23T09:51:48.915Z,13.73
2018-11-23T09:54:16.632Z,16.63
2018-11-23T09:56:44.372Z,14.10
2018-11-23T09:59:12.092Z,17.10
2018-11-23T10:01:39.841Z,16.17
2018-11-23T10:04:07.624Z,17.13
2018-11-23T10:06:35.359Z,17.77
2018-11-23T10:09:03.804Z,15.73
2018-11-23T10:11:31.555Z,17.77
2018-11-23T10:13:59.300Z,16.90
2018-11-23T10:16:27.065Z,16.10
2018-11-23T10:18:54.794Z,17.03
2018-11-23T10:21:22.530Z,25.53
2018-11-23T10:23:50.286Z,20.97
2018-11-23T10:26:18.130Z,20.63
2018-11-23T10:28:45.875Z,25.50
2018-11-23T10:31:13.632Z,31.87
2018-11-23T10:33:41.351Z,68.63
2018-11-23T10:36:09.119Z,96.07
2018-11-23T10:38:36.875Z,132.13
2018-11-23T10:41:04.697Z,142.93
2018-11-23T10:43:32.434Z,131.43
2018-11-23T10:46:00.223Z,122.23
2018-11-23T10:48:27.994Z,95.70
2018-11-23T10:50:55.778Z,74.93
2018-11-23T10:53:23.559Z,74.57
2018-11-23T10:55:51.342Z,60.23
2018-11-23T10:58:19.114Z,74.27
2018-11-23T11:00:48.791Z,70.60
2018-11-23T11:06:26.776Z,67.90
2018-11-23T11:08:54.499Z,62.67
2018-11-23T11:11:22.316Z,76.97
2018-11-23T11:13:50.119Z,47.27
2018-11-23T11:16:17.868Z,48.97
2018-11-23T11:18:45.608Z,50.60
2018-11-23T11:21:13.413Z,46.10
2018-11-23T11:23:41.171Z,32.43
2018-11-23T11:26:08.944Z,32.97
2018-11-23T11:28:36.666Z,33.10
2018-11-23T11:31:04.732Z,30.87
2018-11-23T11:33:32.459Z,33.50
2018-11-23T11:36:00.228Z,16.90
2018-11-23T11:38:27.978Z,21.93
2018-11-23T11:40:55.720Z,24.17
2018-11-23T11:43:23.500Z,21.03
2018-11-23T11:45:51.296Z,24.60
2018-11-23T11:48:19.064Z,25.67
2018-11-23T11:50:46.794Z,23.30
2018-11-23T11:53:14.527Z,26.80
2018-11-23T11:55:42.270Z,26.73
2018-11-23T11:58:09.999Z,19.90
2018-11-23T12:00:37.767Z,18.53
2018-11-23T12:03:06.127Z,26.23
2018-11-23T12:05:33.943Z,20.20
2018-11-23T12:08:01.677Z,14.63
2018-11-23T12:10:29.544Z,13.83
2018-11-23T12:12:57.277Z,17.10
2018-11-23T12:15:25.008Z,14.80
2018-11-23T12:17:52.739Z,21.17
2018-11-23T12:20:22.035Z,16.53
2018-11-23T12:22:50.192Z,17.63
2018-11-23T12:25:18.280Z,17.37
2018-11-23T12:27:46.004Z,15.10
2018-11-23T12:30:15.845Z,17.50
2018-11-23T12:32:44.524Z,16.73
2018-11-23T12:35:13.323Z,13.70
2018-11-23T12:37:41.163Z,14.70
2018-11-23T12:40:11.022Z,18.87
2018-11-23T12:42:38.815Z,13.67
2018-11-23T12:45:08.219Z,14.97
2018-11-23T12:47:35.961Z,14.87
2018-11-23T12:50:04.386Z,21.50
2018-11-23T12:52:32.121Z,22.57
2018-11-23T12:54:59.850Z,22.13
2018-11-23T12:57:27.579Z,21.47
2018-11-23T12:59:55.339Z,20.17
2018-11-23T13:02:23.088Z,17.03
2018-11-23T13:04:50.856Z,21.00
2018-11-23T13:07:18.583Z,17.07
2018-11-23T13:09:46.327Z,16.83
2018-11-23T13:12:14.058Z,16.20
2018-11-23T13:14:41.787Z,14.97
2018-11-23T13:17:09.515Z,16.37
2018-11-23T13:19:37.289Z,13.47
2018-11-23T13:22:05.067Z,15.33
2018-11-23T13:24:32.812Z,9.93
2018-11-23T13:27:00.575Z,13.03
2018-11-23T13:29:28.320Z,15.90
2018-11-23T13:31:56.108Z,16.47
2018-11-23T13:34:23.871Z,16.03
2018-11-23T13:36:51.612Z,12.50
2018-11-23T13:39:19.364Z,12.50
2018-11-23T13:41:47.121Z,12.57
2018-11-23T13:44:14.879Z,14.47
2018-11-23T13:46:42.612Z,11.57
2018-11-23T13:49:10.327Z,14.43
2018-11-23T13:51:38.041Z,9.50
2018-11-23T13:54:05.928Z,12.57
2018-11-23T13:56:33.699Z,11.70
2018-11-23T13:59:01.848Z,17.33
2018-11-23T14:01:29.594Z,20.53
2018-11-23T14:03:57.316Z,21.10
2018-11-23T14:06:25.085Z,19.60
2018-11-23T14:08:52.819Z,21.23
2018-11-23T14:11:20.551Z,23.37
2018-11-23T14:13:48.288Z,20.03
2018-11-23T14:16:16.036Z,20.13
2018-11-23T14:18:43.827Z,14.57
2018-11-23T14:21:11.574Z,16.10
2018-11-23T14:23:39.304Z,15.47
2018-11-23T14:26:07.175Z,17.20
2018-11-23T14:28:34.906Z,25.10
2018-11-23T14:31:02.659Z,30.27
2018-11-23T14:33:30.429Z,49.97
2018-11-23T14:35:58.177Z,56.50
2018-11-23T14:38:25.905Z,60.27
2018-11-23T14:40:53.643Z,89.63
2018-11-23T14:43:21.360Z,82.63
2018-11-23T14:45:49.107Z,59.53
2018-11-23T14:48:16.831Z,40.47
2018-11-23T14:50:48.164Z,42.97
2018-11-23T14:53:15.927Z,46.57
2018-11-23T14:55:43.665Z,36.40
2018-11-23T14:58:11.405Z,44.83
2018-11-23T15:00:39.593Z,57.43
2018-11-23T15:03:07.737Z,55.57
2018-11-23T15:05:35.988Z,44.43
2018-11-23T17:58:28.951Z,121.67
2018-11-23T18:00:56.675Z,122.60
2018-11-23T18:03:24.408Z,118.23
2018-11-23T18:05:52.176Z,121.43
2018-11-23T18:08:19.918Z,125.83
2018-11-23T18:10:47.716Z,100.50
2018-11-23T18:13:15.444Z,66.17
2018-11-23T18:15:44.136Z,59.07
2018-11-23T18:18:11.920Z,55.93
2018-11-23T18:20:39.635Z,59.47
2018-11-23T18:23:07.412Z,62.90
2018-11-23T18:25:37.781Z,65.37
2018-11-23T18:28:05.656Z,69.30
2018-11-23T18:30:33.900Z,75.03
2018-11-23T18:33:03.069Z,84.80
2018-11-23T18:35:30.840Z,83.33
2018-11-23T18:37:58.580Z,87.90
2018-11-23T18:40:26.315Z,84.83
2018-11-23T18:42:54.049Z,75.97
2018-11-23T18:45:21.815Z,85.53
2018-11-23T18:47:49.527Z,72.70
2018-11-23T18:50:17.739Z,82.63
2018-11-23T18:52:45.483Z,79.23
2018-11-23T18:55:18.174Z,85.27
2018-11-23T18:57:41.711Z,78.67
2018-11-23T19:00:14.156Z,79.07
2018-11-23T19:02:42.707Z,82.40
2018-11-23T19:05:17.023Z,87.50
2018-11-23T19:07:44.764Z,77.73
2018-11-23T19:10:13.363Z,60.80
2018-11-23T19:12:41.106Z,66.60
2018-11-23T19:15:12.056Z,66.33
2018-11-23T19:17:39.790Z,54.33
2018-11-23T19:20:10.543Z,52.63
2018-11-23T19:22:38.259Z,52.10
2018-11-23T19:25:06.408Z,46.73
2018-11-23T19:27:34.480Z,50.27
2018-11-23T19:30:02.249Z,44.43
2018-11-23T19:32:29.988Z,38.10
2018-11-23T19:34:57.716Z,34.93
2018-11-23T19:37:32.023Z,30.00
2018-11-23T19:39:59.779Z,37.97
2018-11-23T19:42:27.543Z,37.10
2018-11-23T19:44:55.273Z,37.70
2018-11-23T19:47:22.991Z,37.27
2018-11-23T19:49:50.726Z,41.77
2018-11-23T19:52:18.459Z,48.13
2018-11-23T19:54:46.190Z,43.13
2018-11-23T19:57:13.926Z,45.97
2018-11-23T19:59:41.644Z,46.43
2018-11-23T20:02:10.274Z,46.77
2018-11-23T20:04:38.034Z,55.47
2018-11-23T20:07:05.841Z,51.07
2018-11-23T20:09:35.986Z,59.17
2018-11-23T20:12:01.393Z,61.27
2018-11-23T20:14:29.148Z,57.30
2018-11-23T20:16:56.872Z,54.67
2018-11-23T20:19:24.596Z,49.37
2018-11-23T20:21:52.324Z,37.37
2018-11-23T20:24:20.055Z,33.47
2018-11-23T20:26:47.783Z,35.23
2018-11-23T20:29:15.500Z,29.77
2018-11-23T20:31:43.231Z,23.10
2018-11-23T20:34:10.973Z,23.37
2018-11-23T20:36:38.704Z,21.87
2018-11-23T20:39:08.527Z,19.60
2018-11-23T20:41:36.612Z,17.00
2018-11-23T20:44:04.975Z,17.90
2018-11-23T20:46:32.709Z,21.13
2018-11-23T20:49:00.448Z,18.23
2018-11-23T20:51:28.204Z,15.77
2018-11-23T20:53:56.014Z,15.53
2018-11-23T20:56:23.787Z,17.80
2018-11-23T20:58:51.508Z,18.87
2018-11-23T21:01:19.228Z,16.87
2018-11-23T21:03:46.952Z,16.50
2018-11-23T21:06:14.675Z,19.60
2018-11-23T21:08:42.417Z,19.27
2018-11-23T21:11:10.147Z,27.77
2018-11-23T21:13:37.875Z,28.30
2018-11-23T21:16:05.739Z,20.93
2018-11-23T21:18:33.473Z,17.30
2018-11-23T21:21:01.200Z,15.60
2018-11-23T21:23:28.975Z,19.23
2018-11-23T21:25:56.739Z,17.93
2018-11-23T21:28:24.460Z,19.73
2018-11-23T21:30:52.184Z,17.27
2018-11-23T21:33:19.889Z,16.43
2018-11-23T21:35:47.615Z,17.73
2018-11-23T21:38:15.348Z,16.43
2018-11-23T21:40:44.434Z,17.30
2018-11-23T21:43:10.886Z,16.37
2018-11-23T21:45:38.643Z,19.60
2018-11-23T21:48:06.399Z,19.03
2018-11-23T21:50:34.141Z,21.77
2018-11-23T21:53:01.866Z,23.00
2018-11-23T21:55:29.604Z,25.37
2018-11-23T21:57:57.404Z,27.00
2018-11-23T22:00:25.206Z,30.97
2018-11-23T22:02:52.938Z,26.13
2018-11-23T22:05:20.664Z,23.47
2018-11-23T22:07:48.391Z,26.30
2018-11-23T22:10:17.967Z,27.50
2018-11-23T22:12:45.722Z,30.37
2018-11-23T22:15:16.259Z,30.17
2018-11-23T22:17:43.964Z,29.13
2018-11-23T22:20:12.874Z,30.30
2018-11-23T22:22:40.665Z,29.67
2018-11-23T22:25:09.742Z,29.27
2018-11-23T22:27:37.566Z,30.97
2018-11-23T22:30:21.452Z,28.60
2018-11-23T22:32:49.179Z,32.03
2018-11-23T22:35:16.973Z,28.53
2018-11-23T22:37:44.692Z,20.07
2018-11-23T22:40:13.605Z,21.13
2018-11-23T22:42:42.677Z,23.40
2018-11-23T22:45:11.637Z,23.33
2018-11-23T22:47:39.383Z,22.43
2018-11-23T22:50:09.981Z,23.87
2018-11-23T22:52:37.741Z,21.23
2018-11-23T22:55:07.175Z,21.23
2018-11-23T22:57:34.932Z,22.00
2018-11-23T23:00:02.764Z,22.13
2018-11-23T23:02:30.515Z,24.20
2018-11-23T23:04:58.232Z,26.13
2018-11-23T23:07:25.972Z,24.83
2018-11-23T23:09:53.708Z,28.20
2018-11-23T23:12:21.422Z,27.67
2018-11-23T23:14:49.180Z,27.43
2018-11-23T23:17:16.919Z,25.67
2018-11-23T23:19:44.627Z,24.83
2018-11-23T23:22:12.351Z,24.37
2018-11-23T23:24:40.084Z,26.47
2018-11-23T23:27:07.835Z,24.27
2018-11-23T23:29:35.555Z,25.93
2018-11-23T23:32:03.407Z,24.97
2018-11-23T23:34:31.161Z,22.97
2018-11-23T23:36:58.903Z,24.20
2018-11-23T23:39:26.615Z,22.50
2018-11-23T23:41:54.347Z,23.40
2018-11-23T23:44:22.066Z,22.87
2018-11-23T23:46:49.808Z,23.70
2018-11-23T23:49:17.567Z,24.20
2018-11-23T23:51:45.311Z,28.27
2018-11-23T23:54:13.044Z,24.40
2018-11-23T23:56:40.760Z,26.53
2018-11-23T23:59:08.500Z,31.67
